createdAt,value
2019-05-14T00:02:14.811Z,1.60
2019-05-14T00:04:42.635Z,1.77
2019-05-14T00:07:11.636Z,1.87
2019-05-14T00:09:41.677Z,1.80
2019-05-14T00:12:11.095Z,1.63
2019-05-14T00:14:40.262Z,1.53
2019-05-14T00:17:11.090Z,1.83
2019-05-14T00:19:38.314Z,1.80
2019-05-14T00:22:05.922Z,1.67
2019-05-14T00:24:33.567Z,1.80
2019-05-14T00:27:02.030Z,1.73
2019-05-14T00:29:31.965Z,2.17
2019-05-14T00:32:01.755Z,1.73
2019-05-14T00:34:31.142Z,1.53
2019-05-14T00:36:58.499Z,1.77
2019-05-14T00:39:26.142Z,2.10
2019-05-14T00:41:53.773Z,1.83
2019-05-14T00:44:21.612Z,1.90
2019-05-14T00:46:51.489Z,2.00
2019-05-14T00:49:21.053Z,2.27
2019-05-14T00:51:48.255Z,2.10
2019-05-14T00:54:15.889Z,1.97
2019-05-14T00:56:43.563Z,2.13
2019-05-14T00:59:11.423Z,2.10
2019-05-14T01:01:39.253Z,2.40
2019-05-14T01:04:06.857Z,2.03
2019-05-14T01:06:34.882Z,2.43
2019-05-14T01:09:04.071Z,2.20
2019-05-14T01:11:32.159Z,2.27
2019-05-14T01:14:01.653Z,2.03
2019-05-14T01:16:31.743Z,2.20
2019-05-14T01:19:02.039Z,2.83
2019-05-14T01:21:31.191Z,2.30
2019-05-14T01:24:02.018Z,2.37
2019-05-14T01:26:31.926Z,2.63
2019-05-14T01:29:01.402Z,2.33
2019-05-14T01:31:31.518Z,2.50
2019-05-14T01:34:01.987Z,2.60
2019-05-14T01:36:29.318Z,2.43
2019-05-14T01:38:57.338Z,2.40
2019-05-14T01:41:25.700Z,2.60
2019-05-14T01:43:53.739Z,2.70
2019-05-14T01:46:21.910Z,2.40
2019-05-14T01:48:52.236Z,2.27
2019-05-14T01:51:22.359Z,2.30
2019-05-14T01:53:54.130Z,2.27
2019-05-14T01:56:22.019Z,2.30
2019-05-14T01:58:52.062Z,2.50
2019-05-14T02:01:21.913Z,2.63
2019-05-14T02:03:51.704Z,2.37
2019-05-14T02:06:21.279Z,2.50
2019-05-14T02:08:51.302Z,2.60
2019-05-14T02:11:21.269Z,2.60
2019-05-14T02:13:48.698Z,2.33
2019-05-14T02:16:16.874Z,2.40
2019-05-14T02:18:44.659Z,2.87
2019-05-14T02:21:12.539Z,2.97
2019-05-14T02:23:42.034Z,2.70
2019-05-14T02:26:11.402Z,2.80
2019-05-14T02:28:41.859Z,2.47
2019-05-14T02:31:09.662Z,2.80
2019-05-14T02:33:39.648Z,3.00
2019-05-14T02:36:10.354Z,2.90
2019-05-14T02:38:38.892Z,2.80
2019-05-14T02:41:09.767Z,3.20
2019-05-14T02:43:36.669Z,3.10
2019-05-14T02:46:11.844Z,3.20
2019-05-14T02:48:35.893Z,3.47
2019-05-14T02:51:04.138Z,3.23
2019-05-14T02:53:32.110Z,3.67
2019-05-14T02:56:00.075Z,3.33
2019-05-14T02:58:29.892Z,3.40
2019-05-14T03:01:00.523Z,3.30
2019-05-14T03:03:29.893Z,3.50
2019-05-14T03:06:00.162Z,3.50
2019-05-14T03:08:30.115Z,2.80
2019-05-14T03:11:00.249Z,3.47
2019-05-14T03:13:29.567Z,3.53
2019-05-14T03:15:59.402Z,3.70
2019-05-14T03:18:29.666Z,4.03
2019-05-14T03:20:56.365Z,3.60
2019-05-14T03:23:24.053Z,3.33
2019-05-14T03:25:51.657Z,3.80
2019-05-14T03:28:20.094Z,4.00
2019-05-14T03:30:52.183Z,3.87
2019-05-14T03:33:21.975Z,3.73
2019-05-14T03:35:56.276Z,3.80
2019-05-14T03:38:16.194Z,3.60
2019-05-14T03:40:44.321Z,4.03
2019-05-14T03:43:11.980Z,4.17
2019-05-14T03:45:39.623Z,4.07
2019-05-14T03:48:10.295Z,4.17
2019-05-14T03:50:38.945Z,3.50
2019-05-14T03:53:06.129Z,4.03
2019-05-14T03:55:40.006Z,3.90
2019-05-14T03:58:09.705Z,4.00
2019-05-14T04:00:49.582Z,4.20
2019-05-14T04:03:19.533Z,4.30
2019-05-14T04:05:49.275Z,4.07
2019-05-14T04:08:20.968Z,4.10
2019-05-14T04:10:53.432Z,3.93
2019-05-14T04:13:19.921Z,4.53
2019-05-14T04:15:49.762Z,4.50
2019-05-14T04:18:18.679Z,4.33
2019-05-14T04:20:50.172Z,5.07
2019-05-14T04:23:19.920Z,4.57
2019-05-14T04:25:49.982Z,4.30
2019-05-14T04:28:19.411Z,4.60
2019-05-14T04:30:49.374Z,4.23
2019-05-14T04:33:19.423Z,4.63
2019-05-14T04:35:49.029Z,5.13
2019-05-14T04:38:19.964Z,4.90
2019-05-14T04:40:49.156Z,4.53
2019-05-14T04:43:15.396Z,4.70
2019-05-14T04:45:43.145Z,4.93
2019-05-14T04:48:27.242Z,4.60
2019-05-14T04:50:40.611Z,4.90
2019-05-14T04:53:09.054Z,4.03
2019-05-14T04:55:39.941Z,4.40
2019-05-14T04:58:09.821Z,5.27
2019-05-14T05:00:38.920Z,5.03
2019-05-14T05:03:08.515Z,5.00
2019-05-14T05:05:35.041Z,4.80
2019-05-14T05:08:02.634Z,5.07
2019-05-14T05:10:30.309Z,4.97
2019-05-14T05:12:58.609Z,4.93
2019-05-14T05:15:28.879Z,4.90
2019-05-14T05:17:58.728Z,5.03
2019-05-14T05:20:25.254Z,4.77
2019-05-14T05:22:52.869Z,5.30
2019-05-14T05:25:20.549Z,5.00
2019-05-14T05:27:48.789Z,5.10
2019-05-14T05:30:19.013Z,4.57
2019-05-14T05:32:49.226Z,5.57
2019-05-14T05:35:18.450Z,5.00
2019-05-14T05:37:45.816Z,4.93
2019-05-14T05:40:15.338Z,5.80
2019-05-14T05:42:42.909Z,5.43
2019-05-14T05:45:10.857Z,5.37
2019-05-14T05:47:39.224Z,6.00
2019-05-14T05:50:08.688Z,6.27
2019-05-14T05:52:38.696Z,6.23
2019-05-14T05:55:08.914Z,5.47
2019-05-14T05:57:39.002Z,5.60
2019-05-14T06:00:09.442Z,6.17
2019-05-14T06:02:39.598Z,5.27
2019-05-14T06:05:08.060Z,5.20
2019-05-14T06:07:35.806Z,5.30
2019-05-14T06:10:04.131Z,5.70
2019-05-14T06:12:31.806Z,5.10
2019-05-14T06:14:59.473Z,5.20
2019-05-14T06:17:28.446Z,5.03
2019-05-14T06:19:56.348Z,4.17
2019-05-14T06:22:23.999Z,4.00
2019-05-14T06:24:51.625Z,4.60
2019-05-14T06:27:19.282Z,4.27
2019-05-14T06:29:48.869Z,4.70
2019-05-14T06:32:18.665Z,4.17
2019-05-14T06:34:45.915Z,4.43
2019-05-14T06:37:13.558Z,4.13
2019-05-14T06:39:41.167Z,5.00
2019-05-14T06:42:09.054Z,4.50
2019-05-14T06:44:38.548Z,5.23
2019-05-14T06:47:06.120Z,4.60
2019-05-14T06:49:33.739Z,4.33
2019-05-14T06:52:01.402Z,3.90
2019-05-14T06:54:29.438Z,4.47
2019-05-14T06:56:58.307Z,4.60
2019-05-14T06:59:28.555Z,5.10
2019-05-14T07:01:57.857Z,4.93
2019-05-14T07:04:24.991Z,4.87
2019-05-14T07:06:52.728Z,4.80
2019-05-14T07:09:20.376Z,4.27
2019-05-14T07:11:49.203Z,5.30
2019-05-14T07:14:18.969Z,4.67
2019-05-14T07:16:48.464Z,4.93
2019-05-14T07:19:18.946Z,4.37
2019-05-14T07:21:49.207Z,5.47
2019-05-14T07:24:19.264Z,4.80
2019-05-14T07:26:45.990Z,5.40
2019-05-14T07:29:13.662Z,5.20
2019-05-14T07:31:41.310Z,4.93
2019-05-14T07:34:09.076Z,5.57
2019-05-14T07:36:38.675Z,5.33
2019-05-14T07:39:09.059Z,5.23
2019-05-14T07:41:35.934Z,4.90
2019-05-14T07:44:03.697Z,5.23
2019-05-14T07:46:31.327Z,5.03
2019-05-14T07:49:08.100Z,5.37
2019-05-14T07:51:28.417Z,5.77
2019-05-14T07:53:57.979Z,5.10
2019-05-14T07:56:25.538Z,5.90
2019-05-14T07:58:53.200Z,5.47
2019-05-14T08:01:20.821Z,5.40
2019-05-14T08:03:48.966Z,5.63
2019-05-14T08:06:18.794Z,5.63
2019-05-14T08:08:49.004Z,5.50
2019-05-14T08:11:16.167Z,5.50
2019-05-14T08:13:43.797Z,5.27
2019-05-14T08:16:11.426Z,5.77
2019-05-14T08:18:39.776Z,5.93
2019-05-14T08:21:08.447Z,6.10
2019-05-14T08:23:38.921Z,6.30
2019-05-14T08:26:07.790Z,5.70
2019-05-14T08:28:35.178Z,6.33
2019-05-14T08:31:02.829Z,6.07
2019-05-14T08:33:30.484Z,5.60
2019-05-14T08:35:58.379Z,5.87
2019-05-14T08:38:28.287Z,5.90
2019-05-14T08:40:55.585Z,7.10
2019-05-14T08:43:23.233Z,6.57
2019-05-14T08:45:50.864Z,6.57
2019-05-14T08:48:19.072Z,6.40
2019-05-14T08:50:48.205Z,7.10
2019-05-14T08:53:18.506Z,6.47
2019-05-14T08:55:45.463Z,6.40
2019-05-14T08:58:14.144Z,5.97
2019-05-14T09:00:42.018Z,6.17
2019-05-14T09:03:09.682Z,6.47
2019-05-14T09:05:38.669Z,6.57
2019-05-14T09:08:08.652Z,6.07
2019-05-14T09:10:35.824Z,5.70
2019-05-14T09:13:03.429Z,5.87
2019-05-14T09:15:31.083Z,5.30
2019-05-14T09:17:59.858Z,5.00
2019-05-14T09:20:29.009Z,4.97
2019-05-14T09:22:59.157Z,4.97
2019-05-14T09:25:26.145Z,5.03
2019-05-14T09:27:53.767Z,5.80
2019-05-14T09:30:21.886Z,5.10
2019-05-14T09:32:49.615Z,5.50
2019-05-14T09:35:18.890Z,5.57
2019-05-14T09:37:50.966Z,4.87
2019-05-14T09:40:16.164Z,5.07
2019-05-14T09:42:43.764Z,4.63
2019-05-14T09:45:11.810Z,4.90
2019-05-14T09:47:39.600Z,4.53
2019-05-14T09:50:16.409Z,5.03
2019-05-14T09:52:39.126Z,4.10
2019-05-14T09:55:09.151Z,3.87
2019-05-14T09:57:38.618Z,3.87
2019-05-14T10:00:08.943Z,4.10
2019-05-14T10:02:39.013Z,3.90
2019-05-14T10:05:08.874Z,4.20
2019-05-14T10:07:35.430Z,3.83
2019-05-14T10:10:03.715Z,3.60
2019-05-14T10:12:31.333Z,3.90
2019-05-14T10:14:59.276Z,3.53
2019-05-14T10:17:28.952Z,3.77
2019-05-14T10:19:59.331Z,4.47
2019-05-14T10:22:28.442Z,4.13
2019-05-14T10:24:55.269Z,3.50
2019-05-14T10:27:22.934Z,4.00
2019-05-14T10:29:50.557Z,4.13
2019-05-14T10:32:18.800Z,4.10
2019-05-14T10:34:48.517Z,4.17
2019-05-14T10:37:15.998Z,3.63
2019-05-14T10:39:43.647Z,3.57
2019-05-14T10:42:11.272Z,3.70
2019-05-14T10:44:39.056Z,3.77
2019-05-14T10:47:09.246Z,3.93
2019-05-14T10:49:38.504Z,3.50
2019-05-14T10:52:08.058Z,3.77
2019-05-14T10:54:35.226Z,3.70
2019-05-14T10:57:02.873Z,3.70
2019-05-14T10:59:30.467Z,4.40
2019-05-14T11:01:58.089Z,3.83
2019-05-14T11:04:28.427Z,4.62
2019-05-14T11:06:55.211Z,4.22
2019-05-14T11:09:22.849Z,4.03
2019-05-14T11:11:50.516Z,3.98
2019-05-14T11:14:19.249Z,4.08
2019-05-14T11:16:48.551Z,4.17
2019-05-14T11:19:18.644Z,4.12
2019-05-14T11:21:45.720Z,4.17
2019-05-14T11:24:13.452Z,3.90
2019-05-14T11:26:41.093Z,4.00
2019-05-14T11:29:08.742Z,4.75
2019-05-14T11:31:38.867Z,4.12
2019-05-14T11:34:08.079Z,4.30
2019-05-14T11:36:35.322Z,4.57
2019-05-14T11:39:04.917Z,3.92
2019-05-14T11:41:32.592Z,3.83
2019-05-14T11:44:00.225Z,3.80
2019-05-14T11:46:42.085Z,3.87
2019-05-14T11:48:59.386Z,3.87
2019-05-14T11:51:57.944Z,3.83
2019-05-14T11:53:58.583Z,4.55
2019-05-14T11:56:25.721Z,4.28
2019-05-14T11:58:53.317Z,3.90
2019-05-14T12:01:20.984Z,3.92
2019-05-14T12:03:50.417Z,3.70
2019-05-14T12:06:18.712Z,4.20
2019-05-14T12:08:46.553Z,3.90
2019-05-14T12:11:14.222Z,3.70
2019-05-14T12:13:41.860Z,3.50
2019-05-14T12:16:09.508Z,3.70
2019-05-14T12:18:41.388Z,4.12
2019-05-14T12:21:09.030Z,3.87
2019-05-14T12:23:36.039Z,3.83
2019-05-14T12:26:03.657Z,3.87
2019-05-14T12:28:31.297Z,3.45
2019-05-14T12:30:58.907Z,3.60
2019-05-14T12:33:30.544Z,3.60
2019-05-14T12:35:55.962Z,3.90
2019-05-14T12:38:23.582Z,3.60
2019-05-14T12:40:51.183Z,3.35
2019-05-14T12:43:18.922Z,3.50
2019-05-14T12:45:46.559Z,3.85
2019-05-14T12:48:14.194Z,3.60
2019-05-14T12:50:41.806Z,3.58
2019-05-14T12:53:09.445Z,4.00
2019-05-14T12:55:39.830Z,3.70
2019-05-14T12:58:08.242Z,4.15
2019-05-14T13:00:36.017Z,3.52
2019-05-14T13:03:03.684Z,3.52
2019-05-14T13:05:31.288Z,3.70
2019-05-14T13:07:58.908Z,3.55
2019-05-14T13:10:29.234Z,3.35
2019-05-14T13:12:55.988Z,3.12
2019-05-14T13:15:23.639Z,3.75
2019-05-14T13:17:51.266Z,3.40
2019-05-14T13:20:19.394Z,3.60
2019-05-14T13:22:50.030Z,3.10
2019-05-14T13:25:18.853Z,3.00
2019-05-14T13:27:46.087Z,3.40
2019-05-14T13:30:13.675Z,3.10
2019-05-14T13:32:41.294Z,2.92
2019-05-14T13:35:12.591Z,3.37
2019-05-14T13:37:39.765Z,3.50
2019-05-14T13:40:09.171Z,3.42
2019-05-14T13:42:39.962Z,3.10
2019-05-14T13:45:10.012Z,2.95
2019-05-14T13:47:38.743Z,3.37
2019-05-14T13:50:08.588Z,3.40
2019-05-14T13:52:38.709Z,3.10
2019-05-14T13:55:05.646Z,3.12
2019-05-14T13:57:33.339Z,2.87
2019-05-14T14:00:00.960Z,2.62
2019-05-14T14:02:31.285Z,3.22
2019-05-14T14:04:58.969Z,3.67
2019-05-14T14:07:26.864Z,3.52
2019-05-14T14:09:54.457Z,3.10
2019-05-14T14:12:25.145Z,2.87
2019-05-14T14:14:51.716Z,2.62
2019-05-14T14:17:19.354Z,3.15
2019-05-14T14:19:48.266Z,3.15
2019-05-14T14:22:19.111Z,2.87
2019-05-14T14:24:48.583Z,3.35
2019-05-14T14:27:15.267Z,3.33
2019-05-14T14:29:42.900Z,2.87
2019-05-14T14:32:11.425Z,2.92
2019-05-14T14:34:41.274Z,2.85
2019-05-14T14:37:09.024Z,3.02
2019-05-14T14:39:36.820Z,3.20
2019-05-14T14:42:04.445Z,3.08
2019-05-14T14:44:32.071Z,3.10
2019-05-14T14:46:59.686Z,2.60
2019-05-14T14:49:28.112Z,2.80
2019-05-14T14:51:58.754Z,2.58
2019-05-14T14:54:25.420Z,2.90
2019-05-14T14:56:53.167Z,2.60
2019-05-14T14:59:20.813Z,3.27
2019-05-14T15:01:50.180Z,2.47
2019-05-14T15:04:19.422Z,3.15
2019-05-14T15:06:50.803Z,3.50
2019-05-14T15:09:16.799Z,2.80
2019-05-14T15:11:44.442Z,2.52
2019-05-14T15:14:12.093Z,2.58
2019-05-14T15:16:39.714Z,2.62
2019-05-14T15:19:09.429Z,2.40
2019-05-14T15:21:36.829Z,2.65
2019-05-14T15:24:13.825Z,2.33
2019-05-14T15:26:33.898Z,2.53
2019-05-14T15:29:01.590Z,2.50
2019-05-14T15:31:29.368Z,2.70
2019-05-14T15:33:59.341Z,2.52
2019-05-14T15:36:26.643Z,2.50
2019-05-14T15:38:54.307Z,2.50
2019-05-14T15:41:21.949Z,3.20
2019-05-14T15:43:49.571Z,2.75
2019-05-14T15:46:18.696Z,2.80
2019-05-14T15:48:48.718Z,2.45
2019-05-14T15:51:15.794Z,2.35
2019-05-14T15:54:05.011Z,2.60
2019-05-14T15:56:12.881Z,2.50
2019-05-14T15:58:40.489Z,2.50
2019-05-14T16:01:10.009Z,2.37
2019-05-14T16:03:41.369Z,2.22
2019-05-14T16:06:08.937Z,2.40
2019-05-14T16:08:39.836Z,2.40
2019-05-14T16:11:10.574Z,2.52
2019-05-14T16:13:35.614Z,2.83
2019-05-14T16:16:03.290Z,2.50
2019-05-14T16:18:30.911Z,2.40
2019-05-14T16:20:59.302Z,2.42
2019-05-14T16:23:28.196Z,2.25
2019-05-14T16:25:55.967Z,2.42
2019-05-14T16:28:25.295Z,2.55
2019-05-14T16:30:52.984Z,2.10
2019-05-14T16:33:20.617Z,2.15
2019-05-14T16:35:48.656Z,2.30
2019-05-14T16:38:16.395Z,2.60
2019-05-14T16:40:44.031Z,2.20
2019-05-14T16:43:11.696Z,5.17
2019-05-14T16:45:39.706Z,2.83
2019-05-14T16:48:10.871Z,2.52
2019-05-14T16:50:36.930Z,2.65
2019-05-14T16:53:04.574Z,2.20
2019-05-14T16:55:32.241Z,2.35
2019-05-14T16:57:59.859Z,2.58
2019-05-14T17:00:29.417Z,2.12
2019-05-14T17:02:59.051Z,2.37
2019-05-14T17:05:28.855Z,2.65
2019-05-14T17:07:58.529Z,2.40
2019-05-14T17:10:25.400Z,2.52
2019-05-14T17:12:57.274Z,2.13
2019-05-14T17:15:22.465Z,2.40
2019-05-14T17:17:50.115Z,2.10
2019-05-14T17:20:19.381Z,2.37
2019-05-14T17:22:48.753Z,2.10
2019-05-14T17:25:26.602Z,2.30
2019-05-14T17:27:48.500Z,2.13
2019-05-14T17:30:15.373Z,2.00
2019-05-14T17:32:43.028Z,2.10
2019-05-14T17:35:10.917Z,2.10
2019-05-14T17:37:39.478Z,1.90
2019-05-14T17:40:09.357Z,2.00
2019-05-14T17:42:39.380Z,2.23
2019-05-14T17:45:08.211Z,1.90
2019-05-14T17:47:38.498Z,2.10
2019-05-14T17:50:05.748Z,2.10
2019-05-14T17:52:33.431Z,1.87
2019-05-14T17:55:01.043Z,2.33
2019-05-14T17:57:34.856Z,1.77
2019-05-14T17:59:58.438Z,2.10
2019-05-14T18:02:28.570Z,2.00
2019-05-14T18:04:57.073Z,1.80
2019-05-14T18:07:25.117Z,2.17
2019-05-14T18:09:52.804Z,1.70
2019-05-14T18:12:20.469Z,1.90
2019-05-14T18:14:49.454Z,1.77
2019-05-14T18:17:18.810Z,1.70
2019-05-14T18:19:48.382Z,1.80
2019-05-14T18:22:16.007Z,1.90
2019-05-14T18:24:43.618Z,1.70
2019-05-14T18:27:11.343Z,1.83
2019-05-14T18:29:39.206Z,1.80
2019-05-14T18:32:09.043Z,1.70
2019-05-14T18:34:36.326Z,1.70
2019-05-14T18:37:04.037Z,1.63
2019-05-14T18:39:31.667Z,1.60
2019-05-14T18:42:00.512Z,1.70
2019-05-14T18:44:28.616Z,1.80
2019-05-14T18:46:59.196Z,1.80
2019-05-14T18:49:28.641Z,1.60
2019-05-14T18:51:55.390Z,1.90
2019-05-14T18:54:23.090Z,2.13
2019-05-14T18:56:51.947Z,1.70
2019-05-14T18:59:21.292Z,1.60
2019-05-14T19:01:53.397Z,1.83
2019-05-14T19:04:18.708Z,2.07
2019-05-14T19:06:48.287Z,2.00
2019-05-14T19:09:18.426Z,2.23
2019-05-14T19:11:48.176Z,1.90
2019-05-14T19:14:14.755Z,1.90
2019-05-14T19:16:42.377Z,2.03
2019-05-14T19:19:10.020Z,1.77
2019-05-14T19:21:38.244Z,2.00
2019-05-14T19:24:06.187Z,1.97
2019-05-14T19:26:37.165Z,1.73
2019-05-14T19:29:03.270Z,1.60
2019-05-14T19:31:30.909Z,1.47
2019-05-14T19:33:58.621Z,2.20
2019-05-14T19:36:28.116Z,1.90
2019-05-14T19:38:55.697Z,1.80
2019-05-14T19:41:23.340Z,1.93
2019-05-14T19:43:51.008Z,2.23
2019-05-14T19:46:18.622Z,1.90
2019-05-14T19:48:48.316Z,1.90
2019-05-14T19:51:15.673Z,1.73
2019-05-14T19:53:43.318Z,1.80
2019-05-14T19:56:10.930Z,1.80
2019-05-14T19:58:38.771Z,1.83
2019-05-14T20:01:11.946Z,1.80
2019-05-14T20:03:39.620Z,1.90
2019-05-14T20:06:08.971Z,2.13
2019-05-14T20:08:38.450Z,2.17
2019-05-14T20:11:06.140Z,1.70
2019-05-14T20:13:33.809Z,1.80
2019-05-14T20:16:01.442Z,1.97
2019-05-14T20:18:29.195Z,1.90
2019-05-14T20:20:58.975Z,2.10
2019-05-14T20:26:08.112Z,1.87
2019-05-14T20:28:38.927Z,1.90
2019-05-14T20:31:04.683Z,1.93
2019-05-14T20:33:32.290Z,2.17
2019-05-14T20:35:59.984Z,2.27
2019-05-14T20:38:27.624Z,2.50
2019-05-14T20:40:55.295Z,2.43
2019-05-14T20:43:22.944Z,2.40
2019-05-14T20:45:50.634Z,2.00
2019-05-14T20:48:18.820Z,2.03
2019-05-14T20:50:46.744Z,2.33
2019-05-14T20:53:14.349Z,2.27
2019-05-14T20:55:42.019Z,2.37
2019-05-14T20:58:09.606Z,2.33
2019-05-14T21:00:41.281Z,2.53
2019-05-14T21:03:08.918Z,2.30
2019-05-14T21:05:38.841Z,2.83
2019-05-14T21:08:06.393Z,2.30
2019-05-14T21:10:34.018Z,2.60
2019-05-14T21:13:01.846Z,2.67
2019-05-14T21:15:29.530Z,2.27
2019-05-14T21:17:59.678Z,2.17
2019-05-14T21:20:28.219Z,2.57
2019-05-14T21:22:58.178Z,2.50
2019-05-14T21:25:25.487Z,2.53
2019-05-14T21:27:53.134Z,2.57
2019-05-14T21:30:21.994Z,2.53
2019-05-14T21:32:49.798Z,2.50
2019-05-14T21:35:20.818Z,2.60
2019-05-14T21:37:48.114Z,2.83
2019-05-14T21:40:18.484Z,2.23
2019-05-14T21:42:45.939Z,2.57
2019-05-14T21:45:13.590Z,2.40
2019-05-14T21:47:43.185Z,2.60
2019-05-14T21:50:11.046Z,2.53
2019-05-14T21:52:42.021Z,2.60
2019-05-14T21:55:08.229Z,3.17
2019-05-14T21:57:37.931Z,2.57
2019-05-14T22:00:08.611Z,2.80
2019-05-14T22:02:38.312Z,2.50
2019-05-14T22:05:06.011Z,2.70
2019-05-14T22:07:33.651Z,2.30
2019-05-14T22:10:01.290Z,2.20
2019-05-14T22:12:28.920Z,2.40
2019-05-14T22:14:58.848Z,2.87
2019-05-14T22:17:28.423Z,2.50
2019-05-14T22:22:42.526Z,2.70
2019-05-14T22:25:10.205Z,3.00
2019-05-14T22:27:39.369Z,2.67
2019-05-14T22:30:08.454Z,2.40
2019-05-14T22:32:38.320Z,2.97
2019-05-14T22:35:08.605Z,3.00
2019-05-14T22:37:35.973Z,3.37
2019-05-14T22:40:04.665Z,3.07
2019-05-14T22:42:32.313Z,3.17
2019-05-14T22:44:59.993Z,2.90
2019-05-14T22:47:27.693Z,2.87
2019-05-14T22:49:55.331Z,2.70
2019-05-14T22:52:22.961Z,3.10
2019-05-14T22:54:50.618Z,3.27
2019-05-14T22:57:18.274Z,3.37
2019-05-14T22:59:45.909Z,2.97
2019-05-14T23:02:13.589Z,3.20
2019-05-14T23:04:41.232Z,3.00
2019-05-14T23:07:08.962Z,3.17
2019-05-14T23:09:38.542Z,3.30
2019-05-14T23:12:11.582Z,2.93
2019-05-14T23:14:35.699Z,3.30
2019-05-14T23:17:04.557Z,3.20
2019-05-14T23:19:32.143Z,3.33
2019-05-14T23:21:59.820Z,3.40
2019-05-14T23:24:28.504Z,3.30
2019-05-14T23:26:58.401Z,2.90
2019-05-14T23:29:25.721Z,3.47
2019-05-14T23:31:53.356Z,3.23
2019-05-14T23:34:20.994Z,3.20
2019-05-14T23:36:48.642Z,3.20
2019-05-14T23:39:16.397Z,3.40
2019-05-14T23:41:44.046Z,3.20
2019-05-14T23:44:11.709Z,3.33
2019-05-14T23:46:39.320Z,3.23
2019-05-14T23:49:08.934Z,3.43
2019-05-14T23:51:38.372Z,3.50
2019-05-14T23:54:05.830Z,3.50
2019-05-14T23:56:33.468Z,3.27
2019-05-14T23:59:02.062Z,3.63
